Time;durP1;ratioP1;P1;durP2;ratioP2;P2;SDS_P1;SDS_P2;PMS_P1;PMS_P2;Temp;Humidity;BMP_temperature;BMP_pressure;BME280_temperature;BME280_humidity;BME280_pressure;Samples;Min_cycle;Max_cycle;Signal;HPM_P1;HPM_P2
2023/01/18 00:00:10;;;;;;;15.70;8.55;;;;;;;-144.31;100.00;58022.63;5037014;28;20120;-60
2023/01/18 00:03:35;;;;;;;15.95;8.02;;;;;;;-144.31;100.00;58022.63;5034517;28;20045;-57
2023/01/18 00:07:00;;;;;;;17.75;9.95;;;;;;;-144.31;100.00;58022.63;5040947;28;20075;-57
2023/01/18 00:10:24;;;;;;;18.95;9.70;;;;;;;-144.31;100.00;58022.63;5040528;28;20068;-56
2023/01/18 00:13:48;;;;;;;17.40;9.55;;;;;;;-144.31;100.00;58022.63;5038892;28;20063;-54
2023/01/18 00:17:13;;;;;;;19.85;9.85;;;;;;;-144.31;100.00;58022.63;5037743;28;20037;-58
2023/01/18 00:20:37;;;;;;;18.17;9.13;;;;;;;-144.31;100.00;58022.63;5042846;28;20042;-59
2023/01/18 00:24:01;;;;;;;19.63;10.13;;;;;;;-144.31;100.00;58022.63;5038132;28;20044;-60
2023/01/18 00:27:25;;;;;;;25.20;10.32;;;;;;;-144.31;100.00;58022.63;5042372;28;20037;-55
2023/01/18 00:30:49;;;;;;;23.52;10.90;;;;;;;-144.31;100.00;58022.63;5039409;28;20437;-54
2023/01/18 00:34:13;;;;;;;19.70;10.82;;;;;;;-144.31;100.00;58022.63;5041412;28;20040;-57
2023/01/18 00:37:37;;;;;;;17.88;9.93;;;;;;;-144.31;100.00;58022.63;5043451;28;20033;-57
2023/01/18 00:41:02;;;;;;;22.33;10.48;;;;;;;-144.31;100.00;58022.63;5038822;28;20029;-54
2023/01/18 00:44:26;;;;;;;18.70;10.65;;;;;;;-144.31;100.00;58022.63;5039300;28;20041;-58
2023/01/18 00:47:50;;;;;;;22.45;10.68;;;;;;;-144.31;100.00;58022.63;5038594;28;20087;-58
2023/01/18 00:51:15;;;;;;;21.58;10.45;;;;;;;-144.31;100.00;58022.63;5041847;28;20029;-59
2023/01/18 00:54:39;;;;;;;21.05;11.30;;;;;;;-144.31;100.00;58022.63;5036692;28;20095;-57
2023/01/18 00:58:03;;;;;;;22.02;11.60;;;;;;;-144.31;100.00;58022.63;5042954;28;20028;-57
2023/01/18 01:01:27;;;;;;;20.38;11.55;;;;;;;-144.31;100.00;58022.63;5038963;28;20037;-58
2023/01/18 01:08:34;;;;;;;24.63;11.60;;;;;;;-144.31;100.00;58022.63;5041518;28;20041;-57
2023/01/18 01:27:00;;;;;;;22.77;13.10;;;;;;;-144.31;100.00;58022.63;5036399;28;20037;-56
2023/01/18 01:30:24;;;;;;;26.80;13.82;;;;;;;-144.31;100.00;58022.63;5032325;28;20537;-58
2023/01/18 01:33:50;;;;;;;29.10;14.38;;;;;;;-144.31;100.00;58022.63;5036959;28;20112;-52
2023/01/18 01:37:15;;;;;;;27.10;14.48;;;;;;;-144.31;100.00;58022.63;5040712;28;20044;-53
2023/01/18 01:40:39;;;;;;;26.25;13.95;;;;;;;-144.31;100.00;58022.63;5035560;28;20073;-57
2023/01/18 01:44:26;;;;;;;22.48;12.57;;;;;;;-144.31;100.00;58022.63;5035237;28;20041;-59
2023/01/18 01:48:17;;;;;;;25.05;12.63;;;;;;;-144.31;100.00;58022.63;5035480;28;20108;-58
2023/01/18 01:51:42;;;;;;;27.70;13.43;;;;;;;-144.31;100.00;58022.63;5036093;28;20040;-57
2023/01/18 01:55:29;;;;;;;27.02;13.07;;;;;;;-144.31;100.00;58022.63;5036831;28;20130;-57
2023/01/18 01:59:00;;;;;;;24.85;13.35;;;;;;;-144.31;100.00;58022.63;5042675;28;20061;-54
2023/01/18 02:02:29;;;;;;;30.17;14.68;;;;;;;-144.31;100.00;58022.63;5032909;28;20040;-59
2023/01/18 02:05:59;;;;;;;26.83;14.52;;;;;;;-144.31;100.00;58022.63;5036942;28;20040;-58
2023/01/18 02:09:23;;;;;;;25.55;13.88;;;;;;;-144.31;100.00;58022.63;5032685;28;20033;-57
2023/01/18 02:12:50;;;;;;;26.08;14.35;;;;;;;-144.31;100.00;58022.63;5035041;28;20033;-56
2023/01/18 02:16:29;;;;;;;25.45;13.32;;;;;;;-144.31;100.00;58022.63;5035120;28;20510;-57
2023/01/18 02:20:18;;;;;;;26.45;13.90;;;;;;;-144.31;100.00;58022.63;5034560;28;20079;-56
2023/01/18 02:24:11;;;;;;;29.25;13.77;;;;;;;-144.31;100.00;58022.63;5035527;28;20045;-59
2023/01/18 02:28:09;;;;;;;29.48;14.13;;;;;;;-144.31;100.00;58022.63;5035393;28;20399;-58
2023/01/18 02:31:53;;;;;;;23.63;13.02;;;;;;;-144.31;100.00;58022.63;5033536;28;20037;-56
2023/01/18 02:35:32;;;;;;;24.20;13.13;;;;;;;-144.31;100.00;58022.63;5033630;28;20037;-58
2023/01/18 02:39:00;;;;;;;26.70;13.77;;;;;;;-144.31;100.00;58022.63;5031916;28;20041;-57
2023/01/18 02:46:34;;;;;;;28.25;15.07;;;;;;;-144.31;100.00;58022.63;5033803;28;20037;-57
2023/01/18 02:50:20;;;;;;;30.30;15.90;;;;;;;-144.31;100.00;58022.63;5034164;28;20397;-52
2023/01/18 02:53:45;;;;;;;29.08;14.20;;;;;;;-144.31;100.00;58022.63;5041936;28;20501;-53
2023/01/18 02:57:19;;;;;;;26.73;13.57;;;;;;;-144.31;100.00;58022.63;5041335;28;20056;-58
2023/01/18 03:00:49;;;;;;;26.38;14.27;;;;;;;-144.31;100.00;58022.63;5032537;28;20086;-58
2023/01/18 03:04:18;;;;;;;26.80;14.63;;;;;;;-144.31;100.00;58022.63;5035404;28;20497;-56
2023/01/18 03:07:49;;;;;;;26.08;14.95;;;;;;;-144.31;100.00;58022.63;5032565;28;20151;-54
2023/01/18 03:11:25;;;;;;;30.08;14.45;;;;;;;-144.31;100.00;58022.63;5033748;28;20033;-56
2023/01/18 03:14:55;;;;;;;25.02;14.38;;;;;;;-144.31;100.00;58022.63;5033619;28;20072;-58
2023/01/18 03:18:28;;;;;;;29.95;14.75;;;;;;;-144.31;100.00;58022.63;5041629;28;20322;-55
2023/01/18 03:21:55;;;;;;;26.35;14.18;;;;;;;-144.31;100.00;58022.63;5032303;28;20108;-55
2023/01/18 03:25:22;;;;;;;28.40;14.02;;;;;;;-144.31;100.00;58022.63;5033907;28;20056;-57
2023/01/18 03:36:26;;;;;;;24.38;14.57;;;;;;;-144.31;100.00;58022.63;5034249;28;20481;-54
2023/01/18 03:40:03;;;;;;;24.40;14.45;;;;;;;-144.31;100.00;58022.63;5032533;28;20178;-56
2023/01/18 03:43:43;;;;;;;26.90;14.32;;;;;;;-144.31;100.00;58022.63;5033731;28;20033;-52
2023/01/18 03:47:07;;;;;;;25.95;14.27;;;;;;;-144.31;100.00;58022.63;5036033;28;20029;-54
2023/01/18 03:50:43;;;;;;;25.20;12.95;;;;;;;-144.31;100.00;58022.63;5031644;28;20079;-58
2023/01/18 03:54:14;;;;;;;24.73;13.98;;;;;;;-144.31;100.00;58022.63;5034771;28;20037;-56
2023/01/18 03:57:49;;;;;;;25.27;13.38;;;;;;;-144.31;100.00;58022.63;5033572;28;20045;-54
2023/01/18 04:01:13;;;;;;;22.77;13.65;;;;;;;-144.31;100.00;58022.63;5033841;28;20037;-56
2023/01/18 04:04:37;;;;;;;26.00;13.52;;;;;;;-144.31;100.00;58022.63;5034469;28;20037;-57
2023/01/18 04:08:01;;;;;;;24.98;13.68;;;;;;;-144.31;100.00;58022.63;5034608;28;20152;-56
2023/01/18 04:11:25;;;;;;;22.70;13.13;;;;;;;-144.31;100.00;58022.63;5030462;28;20033;-55
2023/01/18 04:14:49;;;;;;;27.45;15.70;;;;;;;-144.31;100.00;58022.63;5033108;28;20475;-54
2023/01/18 04:18:13;;;;;;;21.65;13.55;;;;;;;-144.31;100.00;58022.63;5033004;28;20179;-57
2023/01/18 04:21:40;;;;;;;25.20;14.48;;;;;;;-144.31;100.00;58022.63;5033876;28;20041;-52
2023/01/18 04:25:04;;;;;;;23.40;13.75;;;;;;;-144.31;100.00;58022.63;5032245;28;20144;-54
2023/01/18 04:28:28;;;;;;;24.95;14.30;;;;;;;-144.31;100.00;58022.63;5033743;28;20037;-56
2023/01/18 04:31:53;;;;;;;30.40;14.23;;;;;;;-144.31;100.00;58022.63;5031769;28;20037;-54
2023/01/18 04:35:17;;;;;;;27.27;15.50;;;;;;;-144.31;100.00;58022.63;5035330;28;20910;-61
2023/01/18 04:38:41;;;;;;;26.75;14.88;;;;;;;-144.31;100.00;58022.63;5030240;28;20056;-59
2023/01/18 04:42:05;;;;;;;28.23;14.13;;;;;;;-144.31;100.00;58022.63;5035099;28;20087;-56
2023/01/18 04:45:29;;;;;;;27.63;14.63;;;;;;;-144.31;100.00;58022.63;5031569;28;20516;-56
2023/01/18 04:48:53;;;;;;;27.63;15.20;;;;;;;-144.31;100.00;58022.63;5031651;28;20041;-55
2023/01/18 04:52:17;;;;;;;27.67;14.38;;;;;;;-144.31;100.00;58022.63;5042845;28;20048;-54
2023/01/18 04:55:41;;;;;;;28.42;14.95;;;;;;;-144.31;100.00;58022.63;5039984;28;20037;-55
2023/01/18 04:59:05;;;;;;;26.67;13.75;;;;;;;-144.31;100.00;58022.63;5034740;28;20033;-51
2023/01/18 05:02:29;;;;;;;25.63;14.50;;;;;;;-144.31;100.00;58022.63;5041480;28;20042;-52
2023/01/18 05:05:53;;;;;;;23.52;13.20;;;;;;;-144.31;100.00;58022.63;5035376;28;20034;-55
2023/01/18 05:09:17;;;;;;;25.77;13.85;;;;;;;-144.31;100.00;58022.63;5035567;28;20041;-57
2023/01/18 05:12:41;;;;;;;28.58;14.07;;;;;;;-144.31;100.00;58022.63;5035494;28;20041;-56
2023/01/18 05:16:06;;;;;;;30.77;16.10;;;;;;;-144.31;100.00;58022.63;5035663;28;20029;-54
2023/01/18 05:19:31;;;;;;;27.92;14.45;;;;;;;-144.31;100.00;58022.63;5042688;28;20042;-57
2023/01/18 05:22:53;;;;;;;26.95;14.48;;;;;;;-144.31;100.00;58022.63;5035054;28;20211;-54
2023/01/18 05:26:19;;;;;;;29.67;14.73;;;;;;;-144.31;100.00;58022.63;5035658;28;20053;-57
2023/01/18 05:29:46;;;;;;;23.75;13.90;;;;;;;-144.31;100.00;58022.63;5032436;28;20512;-56
2023/01/18 05:33:10;;;;;;;28.60;14.38;;;;;;;-144.31;100.00;58022.63;5033607;28;20052;-58
2023/01/18 05:36:34;;;;;;;25.70;14.15;;;;;;;-144.31;100.00;58022.63;5036794;28;20118;-52
2023/01/18 05:39:58;;;;;;;23.00;13.02;;;;;;;-144.31;100.00;58022.63;5036794;28;20041;-56
2023/01/18 05:43:24;;;;;;;19.88;12.05;;;;;;;-144.31;100.00;58022.63;5036578;28;20044;-55
2023/01/18 05:46:48;;;;;;;24.85;12.68;;;;;;;-144.31;100.00;58022.63;5036297;28;20040;-55
2023/01/18 05:50:11;;;;;;;22.15;11.77;;;;;;;-144.31;100.00;58022.63;5043244;28;20490;-54
2023/01/18 05:53:36;;;;;;;19.73;10.93;;;;;;;-144.31;100.00;58022.63;5036189;28;20145;-57
2023/01/18 05:57:02;;;;;;;15.98;10.15;;;;;;;-144.31;100.00;58022.63;5035285;28;20155;-54
2023/01/18 06:00:25;;;;;;;17.43;9.90;;;;;;;-144.31;100.00;58022.63;5033241;28;20323;-57
2023/01/18 06:03:50;;;;;;;13.55;8.93;;;;;;;-144.31;100.00;58022.63;5032927;28;20049;-57
2023/01/18 06:07:17;;;;;;;15.35;8.90;;;;;;;-144.31;100.00;58022.63;5038256;28;20103;-55
2023/01/18 06:10:41;;;;;;;13.70;8.52;;;;;;;-144.31;100.00;58022.63;5032278;28;20041;-56
2023/01/18 06:14:07;;;;;;;15.93;10.02;;;;;;;-144.31;100.00;58022.63;5036790;28;20038;-56
2023/01/18 06:17:33;;;;;;;;;;;;;;;-144.31;100.00;58022.63;5038681;28;20033;-57
2023/01/18 06:20:58;;;;;;;12.35;6.85;;;;;;;-144.31;100.00;58022.63;5037008;28;20016;-56
2023/01/18 06:24:22;;;;;;;11.50;7.32;;;;;;;-144.31;100.00;58022.63;5038908;28;20544;-57
2023/01/18 06:27:46;;;;;;;13.63;6.38;;;;;;;-144.31;100.00;58022.63;5035743;28;20124;-57
2023/01/18 06:31:10;;;;;;;10.40;6.63;;;;;;;-144.31;100.00;58022.63;5034710;28;20083;-57
2023/01/18 06:34:35;;;;;;;10.93;6.72;;;;;;;-144.31;100.00;58022.63;5034539;28;20190;-55
2023/01/18 06:38:00;;;;;;;9.52;5.93;;;;;;;-144.31;100.00;58022.63;5030822;28;20551;-56
2023/01/18 06:41:24;;;;;;;9.43;6.53;;;;;;;-144.31;100.00;58022.63;5021818;28;20091;-53
2023/01/18 06:44:48;;;;;;;10.05;6.57;;;;;;;-144.31;100.00;58022.63;5032177;28;20485;-55
2023/01/18 06:48:12;;;;;;;10.23;6.60;;;;;;;-144.31;100.00;58022.63;5036617;28;20033;-57
2023/01/18 06:51:36;;;;;;;11.05;6.18;;;;;;;-144.31;100.00;58022.63;5033961;28;20061;-57
2023/01/18 06:55:00;;;;;;;12.40;6.28;;;;;;;-144.31;100.00;58022.63;5033568;28;20037;-56
2023/01/18 06:58:25;;;;;;;9.77;6.68;;;;;;;-144.31;100.00;58022.63;5036355;28;20102;-53
2023/01/18 07:01:53;;;;;;;14.25;6.97;;;;;;;-144.31;100.00;58022.63;5034382;28;20116;-56
2023/01/18 07:05:17;;;;;;;11.15;6.95;;;;;;;-144.31;100.00;58022.63;5030619;28;20045;-58
2023/01/18 07:08:41;;;;;;;13.23;7.40;;;;;;;-144.31;100.00;58022.63;5035969;28;20344;-53
2023/01/18 07:12:06;;;;;;;10.80;7.35;;;;;;;-144.31;100.00;58022.63;5032181;28;20106;-54
2023/01/18 07:15:30;;;;;;;14.55;8.50;;;;;;;-144.31;100.00;58022.63;5041032;28;20072;-57
2023/01/18 07:18:54;;;;;;;14.25;8.43;;;;;;;-144.31;100.00;58022.63;5030225;28;20036;-60
2023/01/18 07:22:18;;;;;;;11.15;7.13;;;;;;;-144.31;100.00;58022.63;5032199;28;20044;-56
2023/01/18 07:25:42;;;;;;;13.23;8.13;;;;;;;-144.31;100.00;58022.63;5033107;28;20041;-59
2023/01/18 07:29:06;;;;;;;13.68;8.75;;;;;;;-144.31;100.00;58022.63;5030626;28;20037;-54
2023/01/18 07:32:30;;;;;;;15.63;8.82;;;;;;;-144.31;100.00;58022.63;5030429;28;20132;-57
2023/01/18 07:35:54;;;;;;;13.20;8.20;;;;;;;-144.31;100.00;58022.63;5030805;28;20045;-57
2023/01/18 07:39:19;;;;;;;11.57;7.97;;;;;;;-144.31;100.00;58022.63;5030604;28;20037;-57
2023/01/18 07:42:43;;;;;;;14.07;9.02;;;;;;;-144.31;100.00;58022.63;5030280;28;20040;-54
2023/01/18 07:46:09;;;;;;;14.68;8.80;;;;;;;-144.31;100.00;58022.63;5033546;28;20053;-57
2023/01/18 07:49:33;;;;;;;15.23;10.30;;;;;;;-144.31;100.00;58022.63;5032734;28;20041;-56
2023/01/18 07:52:57;;;;;;;15.00;8.82;;;;;;;-144.31;100.00;58022.63;5032021;28;20080;-55
2023/01/18 07:56:22;;;;;;;12.77;8.82;;;;;;;-144.31;100.00;58022.63;5031955;28;20581;-60
2023/01/18 07:59:46;;;;;;;15.25;8.60;;;;;;;-144.31;100.00;58022.63;5031552;28;20052;-58
2023/01/18 08:03:11;;;;;;;12.80;7.65;;;;;;;-144.31;100.00;58022.63;5030311;28;20064;-54
2023/01/18 08:06:35;;;;;;;11.05;7.05;;;;;;;-144.31;100.00;58022.63;5031109;28;20045;-54
2023/01/18 08:09:59;;;;;;;13.60;7.90;;;;;;;-144.31;100.00;58022.63;5035191;28;20065;-58
2023/01/18 08:13:24;;;;;;;10.93;6.63;;;;;;;-144.31;100.00;58022.63;5030058;28;20371;-60
2023/01/18 08:16:48;;;;;;;13.50;7.95;;;;;;;-144.31;100.00;58022.63;5029708;28;20099;-58
2023/01/18 08:20:13;;;;;;;11.77;7.07;;;;;;;-144.31;100.00;58022.63;5032200;28;20245;-56
2023/01/18 08:23:38;;;;;;;14.35;7.78;;;;;;;-144.31;100.00;58022.63;5031317;28;20041;-57
2023/01/18 08:27:02;;;;;;;12.80;7.57;;;;;;;-144.31;100.00;58022.63;5032917;28;20090;-55
2023/01/18 08:30:27;;;;;;;12.20;7.88;;;;;;;-144.31;100.00;58022.63;5031854;28;20383;-55
2023/01/18 08:33:52;;;;;;;15.50;7.60;;;;;;;-144.31;100.00;58022.63;5033675;28;20037;-53
2023/01/18 08:37:22;;;;;;;14.27;9.80;;;;;;;-144.31;100.00;58022.63;5030536;28;20116;-57
2023/01/18 08:40:46;;;;;;;10.90;6.97;;;;;;;-144.31;100.00;58022.63;5037530;28;20044;-57
2023/01/18 08:44:11;;;;;;;20.15;12.35;;;;;;;-144.31;100.00;58022.63;5033067;28;20033;-61
2023/01/18 08:47:35;;;;;;;13.27;9.23;;;;;;;-144.31;100.00;58022.63;5034447;28;20053;-58
2023/01/18 08:51:00;;;;;;;17.52;11.30;;;;;;;-144.31;100.00;58022.63;5031597;28;20046;-59
2023/01/18 08:54:23;;;;;;;15.98;10.32;;;;;;;-144.31;100.00;58022.63;5033470;28;20037;-54
2023/01/18 08:57:52;;;;;;;19.95;11.20;;;;;;;-144.31;100.00;58022.63;5031731;28;20040;-56
2023/01/18 09:01:16;;;;;;;19.25;11.18;;;;;;;-144.31;100.00;58022.63;5032671;28;20045;-59
2023/01/18 09:04:41;;;;;;;18.05;11.23;;;;;;;-144.31;100.00;58022.63;5034371;28;20102;-55
2023/01/18 09:08:05;;;;;;;16.08;9.95;;;;;;;-144.31;100.00;58022.63;5035216;28;20113;-56
2023/01/18 09:11:25;;;;;;;17.10;10.02;;;;;;;-144.31;100.00;58022.63;5033485;28;20091;-55
2023/01/18 09:14:49;;;;;;;16.20;9.55;;;;;;;-144.31;100.00;58022.63;5035669;28;20060;-57
2023/01/18 09:18:08;;;;;;;17.40;9.52;;;;;;;-144.31;100.00;58022.63;5033772;28;20115;-56
2023/01/18 09:21:19;;;;;;;14.32;9.35;;;;;;;-144.31;100.00;58022.63;5034894;28;20124;-58
2023/01/18 09:24:14;;;;;;;13.38;8.70;;;;;;;-144.31;100.00;58022.63;5035904;28;20048;-55
2023/01/18 09:27:04;;;;;;;13.23;7.82;;;;;;;-144.31;100.00;58022.63;5035100;28;20123;-55
2023/01/18 09:30:29;;;;;;;11.52;7.90;;;;;;;-144.31;100.00;58022.63;5032987;28;20048;-61
2023/01/18 09:33:54;;;;;;;11.55;7.68;;;;;;;-144.31;100.00;58022.63;5034635;28;20521;-58
2023/01/18 09:36:45;;;;;;;13.82;8.70;;;;;;;-144.31;100.00;58022.63;5032131;28;20114;-59
2023/01/18 09:40:14;;;;;;;14.52;9.57;;;;;;;-144.31;100.00;58022.63;5032184;28;20440;-58
2023/01/18 09:43:43;;;;;;;14.82;8.88;;;;;;;-144.31;100.00;58022.63;5032380;28;20126;-58
2023/01/18 09:47:20;;;;;;;17.25;9.35;;;;;;;-144.31;100.00;58022.63;5033637;28;20052;-53
2023/01/18 09:50:58;;;;;;;11.30;8.13;;;;;;;-144.31;100.00;58022.63;5032759;28;20041;-57
2023/01/18 09:54:38;;;;;;;11.98;8.50;;;;;;;-144.31;100.00;58022.63;5031299;28;20033;-57
2023/01/18 09:58:30;;;;;;;13.70;9.30;;;;;;;-144.31;100.00;58022.63;5035465;28;20102;-52
2023/01/18 10:02:18;;;;;;;17.45;9.38;;;;;;;-144.31;100.00;58022.63;5032836;28;20037;-55
2023/01/18 10:06:08;;;;;;;11.68;7.85;;;;;;;-144.31;100.00;58022.63;5032384;28;20088;-55
2023/01/18 10:09:39;;;;;;;11.45;7.65;;;;;;;-144.31;100.00;58022.63;5033772;28;20029;-56
2023/01/18 10:13:34;;;;;;;12.95;8.10;;;;;;;-144.31;100.00;58022.63;5033220;28;20033;-56
2023/01/18 10:17:00;;;;;;;10.90;6.68;;;;;;;-144.31;100.00;58022.63;5031533;28;20048;-57
2023/01/18 10:20:39;;;;;;;11.07;7.47;;;;;;;-144.31;100.00;58022.63;5030204;28;20037;-59
2023/01/18 10:24:09;;;;;;;9.75;6.97;;;;;;;-144.31;100.00;58022.63;5032960;28;20033;-58
2023/01/18 10:27:50;;;;;;;12.57;7.75;;;;;;;-144.31;100.00;58022.63;5032584;28;20041;-55
2023/01/18 10:31:43;;;;;;;12.00;7.45;;;;;;;-144.31;100.00;58022.63;5031867;28;20633;-55
2023/01/18 10:35:29;;;;;;;12.30;7.80;;;;;;;-144.31;100.00;58022.63;5028921;28;20126;-52
2023/01/18 10:38:56;;;;;;;12.00;6.95;;;;;;;-144.31;100.00;58022.63;5030843;28;20042;-59
2023/01/18 10:42:32;;;;;;;13.57;7.60;;;;;;;-144.31;100.00;58022.63;5032382;28;20038;-56
2023/01/18 10:45:57;;;;;;;10.52;7.28;;;;;;;-144.31;100.00;58022.63;5031587;28;20034;-55
2023/01/18 10:49:39;;;;;;;12.48;6.90;;;;;;;-144.31;100.00;58022.63;5030156;28;20565;-58
2023/01/18 10:53:25;;;;;;;10.93;6.53;;;;;;;-144.31;100.00;58022.63;5030595;28;20124;-57
2023/01/18 10:57:03;;;;;;;12.65;7.25;;;;;;;-144.31;100.00;58022.63;5033915;28;20072;-59
2023/01/18 11:00:37;;;;;;;14.07;8.32;;;;;;;-144.31;100.00;58022.63;5031920;28;20029;-53
2023/01/18 11:04:18;;;;;;;10.98;7.22;;;;;;;-144.31;100.00;58022.63;5032714;28;20044;-55
2023/01/18 11:08:19;;;;;;;11.68;7.85;;;;;;;-144.31;100.00;58022.63;5034183;28;20037;-60
2023/01/18 11:16:02;;;;;;;12.43;7.00;;;;;;;-144.31;100.00;58022.63;5034338;28;20040;-55
2023/01/18 11:19:27;;;;;;;11.63;7.75;;;;;;;-144.31;100.00;58022.63;5031667;28;20034;-61
2023/01/18 11:22:54;;;;;;;15.15;9.27;;;;;;;-144.31;100.00;58022.63;5030905;28;20478;-59
2023/01/18 11:26:20;;;;;;;14.43;8.93;;;;;;;-144.31;100.00;58022.63;5030881;28;20044;-58
2023/01/18 11:30:00;;;;;;;16.60;10.02;;;;;;;-144.31;100.00;58022.63;5037467;28;20569;-58
2023/01/18 11:33:27;;;;;;;13.68;9.20;;;;;;;-144.31;100.00;58022.63;5031206;28;20037;-58
2023/01/18 11:36:52;;;;;;;16.48;9.98;;;;;;;-144.31;100.00;58022.63;5034180;28;20072;-58
2023/01/18 11:40:19;;;;;;;21.13;9.85;;;;;;;-144.31;100.00;58022.63;5032931;28;20513;-58
2023/01/18 11:43:51;;;;;;;14.13;7.68;;;;;;;-144.31;100.00;58022.63;5032315;28;20041;-55
2023/01/18 11:47:22;;;;;;;17.52;10.52;;;;;;;-144.31;100.00;58022.63;5031111;28;20083;-56
2023/01/18 11:51:06;;;;;;;15.23;9.75;;;;;;;-144.31;100.00;58022.63;5030682;28;20045;-55
2023/01/18 11:54:47;;;;;;;17.17;10.00;;;;;;;-144.31;100.00;58022.63;5032435;28;20037;-57
2023/01/18 11:58:24;;;;;;;16.70;9.25;;;;;;;-144.31;100.00;58022.63;5030040;28;20068;-56
2023/01/18 12:02:12;;;;;;;20.00;10.52;;;;;;;-144.31;100.00;58022.63;5030211;28;20505;-59
2023/01/18 12:05:43;;;;;;;18.75;11.15;;;;;;;-144.31;100.00;58022.63;5034445;28;20045;-56
2023/01/18 12:09:36;;;;;;;18.77;11.02;;;;;;;-144.31;100.00;58022.63;5032431;28;20351;-54
2023/01/18 12:13:21;;;;;;;17.58;11.13;;;;;;;-144.31;100.00;58022.63;5010850;28;20048;-55
2023/01/18 12:16:51;;;;;;;14.47;9.03;;;;;;;-144.31;100.00;58022.63;5031648;28;20044;-53
2023/01/18 12:20:30;;;;;;;16.88;10.10;;;;;;;-144.31;100.00;58022.63;5030512;28;20061;-56
2023/01/18 12:24:03;;;;;;;13.75;8.68;;;;;;;-144.31;100.00;58022.63;5029853;28;20441;-58
2023/01/18 12:27:44;;;;;;;16.75;10.20;;;;;;;-144.31;100.00;58022.63;5031088;28;20540;-53
2023/01/18 12:31:17;;;;;;;14.38;7.80;;;;;;;-144.31;100.00;58022.63;5040854;28;20406;-55
2023/01/18 12:34:59;;;;;;;16.10;9.63;;;;;;;-144.31;100.00;58022.63;5031773;28;20166;-54
2023/01/18 12:38:26;;;;;;;19.65;9.82;;;;;;;-144.31;100.00;58022.63;5031145;28;20087;-54
2023/01/18 12:42:10;;;;;;;16.10;9.73;;;;;;;-144.31;100.00;58022.63;5030374;28;20493;-54
2023/01/18 12:45:35;;;;;;;17.52;9.25;;;;;;;-144.31;100.00;58022.63;5029811;28;20061;-57
2023/01/18 12:49:06;;;;;;;19.27;9.52;;;;;;;-144.31;100.00;58022.63;5030119;28;20611;-56
2023/01/18 12:52:23;;;;;;;20.13;10.63;;;;;;;-144.31;100.00;58022.63;5030292;28;20692;-58
2023/01/18 12:55:55;;;;;;;21.42;8.38;;;;;;;-144.31;100.00;58022.63;5031639;28;20037;-55
2023/01/18 12:59:20;;;;;;;15.95;8.00;;;;;;;-144.31;100.00;58022.63;5030486;28;20034;-59
2023/01/18 13:02:55;;;;;;;17.27;10.17;;;;;;;-144.31;100.00;58022.63;5030976;28;20128;-56
2023/01/18 13:06:24;;;;;;;15.85;8.85;;;;;;;-144.31;100.00;58022.63;5029356;28;20037;-60
2023/01/18 13:09:48;;;;;;;20.25;10.27;;;;;;;-144.31;100.00;58022.63;5033849;28;20033;-55
2023/01/18 13:13:17;;;;;;;16.80;8.80;;;;;;;-144.31;100.00;58022.63;5031589;28;20049;-54
2023/01/18 13:16:50;;;;;;;15.52;8.57;;;;;;;-144.31;100.00;58022.63;5039654;28;20076;-58
2023/01/18 13:20:18;;;;;;;16.98;8.73;;;;;;;-144.31;100.00;58022.63;5038306;28;20047;-54
2023/01/18 13:23:47;;;;;;;14.23;8.15;;;;;;;-144.31;100.00;58022.63;5036903;28;20048;-58
2023/01/18 13:27:17;;;;;;;15.18;8.93;;;;;;;-144.31;100.00;58022.63;5039504;28;20804;-58
2023/01/18 13:30:52;;;;;;;20.90;9.05;;;;;;;-144.31;100.00;58022.63;5037497;28;20481;-60
2023/01/18 13:34:22;;;;;;;17.50;8.68;;;;;;;-144.31;100.00;58022.63;5036459;28;20032;-58
2023/01/18 13:37:51;;;;;;;13.23;7.68;;;;;;;-144.31;100.00;58022.63;5037838;28;20486;-57
2023/01/18 13:41:27;;;;;;;17.25;8.15;;;;;;;-144.31;100.00;58022.63;5023028;28;20056;-55
2023/01/18 13:45:10;;;;;;;18.95;8.23;;;;;;;-144.31;100.00;58022.63;5035034;28;20449;-57
2023/01/18 13:48:57;;;;;;;10.45;6.20;;;;;;;-144.31;100.00;58022.63;5032884;28;20449;-55
2023/01/18 13:52:41;;;;;;;20.25;8.38;;;;;;;-144.31;100.00;58022.63;5035749;28;20536;-58
2023/01/18 13:56:28;;;;;;;18.17;8.35;;;;;;;-144.31;100.00;58022.63;5035379;28;20074;-58
2023/01/18 13:59:52;;;;;;;12.57;5.97;;;;;;;-144.31;100.00;58022.63;5034812;28;20067;-56
2023/01/18 14:03:25;;;;;;;15.57;8.00;;;;;;;-144.31;100.00;58022.63;5035597;28;20067;-61
2023/01/18 14:06:51;;;;;;;15.23;8.48;;;;;;;-144.31;100.00;58022.63;5037814;28;20045;-57
2023/01/18 14:10:36;;;;;;;15.13;7.93;;;;;;;-144.31;100.00;58022.63;5034242;28;20041;-53
2023/01/18 14:14:22;;;;;;;12.68;7.03;;;;;;;-144.31;100.00;58022.63;5036277;28;20041;-56
2023/01/18 14:18:14;;;;;;;15.50;7.63;;;;;;;-144.31;100.00;58022.63;5034459;28;20056;-54
2023/01/18 14:21:57;;;;;;;17.65;7.38;;;;;;;-144.31;100.00;58022.63;5036650;28;20064;-54
2023/01/18 14:25:30;;;;;;;15.40;8.00;;;;;;;-144.31;100.00;58022.63;5033888;28;20474;-56
2023/01/18 14:29:06;;;;;;;12.63;6.63;;;;;;;-144.31;100.00;58022.63;5039135;28;20033;-56
2023/01/18 14:32:34;;;;;;;13.68;7.40;;;;;;;-144.31;100.00;58022.63;5034353;28;20045;-56
2023/01/18 14:35:22;;;;;;;13.70;6.68;;;;;;;-144.31;100.00;58022.63;5034456;28;20116;-57
2023/01/18 14:38:18;;;;;;;13.38;6.70;;;;;;;-144.31;100.00;58022.63;5033459;28;20068;-54
2023/01/18 14:41:29;;;;;;;17.23;6.75;;;;;;;-144.31;100.00;58022.63;5036049;28;20037;-54
2023/01/18 14:44:36;;;;;;;14.85;7.82;;;;;;;-144.31;100.00;58022.63;5034454;28;20041;-56
2023/01/18 14:47:25;;;;;;;13.68;7.65;;;;;;;-144.31;100.00;58022.63;5028975;28;20127;-56
2023/01/18 14:50:24;;;;;;;13.23;7.35;;;;;;;-144.31;100.00;58022.63;5033616;28;20601;-55
2023/01/18 14:53:15;;;;;;;18.77;7.15;;;;;;;-144.31;100.00;58022.63;5032279;28;20037;-58
2023/01/18 14:56:04;;;;;;;12.32;7.00;;;;;;;-144.31;100.00;58022.63;5031775;28;20947;-57
2023/01/18 14:58:50;;;;;;;13.35;6.80;;;;;;;-144.31;100.00;58022.63;5030370;28;20037;-57
2023/01/18 15:01:56;;;;;;;16.57;7.70;;;;;;;-144.31;100.00;58022.63;5030917;28;20055;-58
2023/01/18 15:04:49;;;;;;;13.25;7.82;;;;;;;-144.31;100.00;58022.63;5032475;28;20120;-57
2023/01/18 15:07:44;;;;;;;15.63;6.82;;;;;;;-144.31;100.00;58022.63;5030268;28;20037;-58
2023/01/18 15:10:38;;;;;;;14.20;7.38;;;;;;;-144.31;100.00;58022.63;5033527;28;20040;-59
2023/01/18 15:13:25;;;;;;;14.25;8.23;;;;;;;-144.31;100.00;58022.63;5032878;28;20033;-57
2023/01/18 15:16:10;;;;;;;17.20;7.53;;;;;;;-144.31;100.00;58022.63;5027401;28;20563;-57
2023/01/18 15:18:54;;;;;;;18.65;8.50;;;;;;;-144.31;100.00;58022.63;5027009;28;20132;-58
2023/01/18 15:21:27;;;;;;;17.30;8.23;;;;;;;-144.31;100.00;58022.63;5032492;28;20355;-57
2023/01/18 15:24:09;;;;;;;16.13;8.10;;;;;;;-144.31;100.00;58022.63;5034230;28;20033;-56
2023/01/18 15:26:52;;;;;;;14.07;7.25;;;;;;;-144.31;100.00;58022.63;5031235;28;20037;-58
2023/01/18 15:29:21;;;;;;;13.52;8.15;;;;;;;-144.31;100.00;58022.63;5028547;28;20052;-57
2023/01/18 15:31:56;;;;;;;16.92;9.50;;;;;;;-144.31;100.00;58022.63;5031358;28;20563;-59
2023/01/18 15:34:34;;;;;;;24.02;10.95;;;;;;;-144.31;100.00;58022.63;5029360;28;20051;-55
2023/01/18 15:37:03;;;;;;;19.48;10.85;;;;;;;-144.31;100.00;58022.63;5028998;28;20052;-57
2023/01/18 15:39:49;;;;;;;21.30;11.40;;;;;;;-144.31;100.00;58022.63;5030942;28;20049;-56
2023/01/18 15:42:23;;;;;;;17.33;9.85;;;;;;;-144.31;100.00;58022.63;5027337;28;20371;-56
2023/01/18 15:44:55;;;;;;;18.20;8.95;;;;;;;-144.31;100.00;58022.63;5032779;28;20037;-57
2023/01/18 15:47:35;;;;;;;15.57;9.00;;;;;;;-144.31;100.00;58022.63;5038717;28;20037;-59
2023/01/18 15:50:23;;;;;;;14.70;9.32;;;;;;;-144.31;100.00;58022.63;5031396;28;20616;-57